createdAt,value
2022-10-18T00:01:10.569Z,72.97
2022-10-18T00:03:38.888Z,72.41
2022-10-18T00:06:09.288Z,73.74
2022-10-18T00:08:38.955Z,74.01
2022-10-18T00:11:07.493Z,73.39
2022-10-18T00:13:35.456Z,74.71
2022-10-18T00:16:06.022Z,74.23
2022-10-18T00:18:33.234Z,74.57
2022-10-18T00:21:07.013Z,73.89
2022-10-18T00:23:35.310Z,74.68
2022-10-18T00:26:28.080Z,74.39
2022-10-18T00:29:02.669Z,74.74
2022-10-18T00:31:37.167Z,75.20
2022-10-18T00:34:17.348Z,76.50
2022-10-18T00:36:45.196Z,75.29
2022-10-18T00:39:18.976Z,76.05
2022-10-18T00:41:47.180Z,77.73
2022-10-18T00:44:14.130Z,77.54
2022-10-18T00:46:49.426Z,76.77
2022-10-18T00:49:23.399Z,75.03
2022-10-18T00:52:23.777Z,76.62
2022-10-18T00:54:52.661Z,76.25
2022-10-18T00:57:20.078Z,76.04
2022-10-18T00:59:47.706Z,76.62
2022-10-18T01:02:18.570Z,74.63
2022-10-18T01:04:47.122Z,75.07
2022-10-18T01:07:22.994Z,74.54
2022-10-18T01:10:26.249Z,75.33
2022-10-18T01:13:34.174Z,74.31
2022-10-18T01:16:23.815Z,76.97
2022-10-18T01:19:34.951Z,76.62
2022-10-18T01:22:52.510Z,76.72
2022-10-18T01:25:44.440Z,76.67
2022-10-18T01:29:11.676Z,78.56
2022-10-18T01:31:50.544Z,78.00
2022-10-18T01:34:20.206Z,77.63
2022-10-18T01:36:56.910Z,76.83
2022-10-18T01:39:33.410Z,76.55
2022-10-18T01:42:04.193Z,75.92
2022-10-18T01:44:35.834Z,76.45
2022-10-18T01:47:10.012Z,77.41
2022-10-18T01:49:37.203Z,78.74
2022-10-18T01:52:04.481Z,79.48
2022-10-18T01:54:39.118Z,79.15
2022-10-18T01:57:12.316Z,79.16
2022-10-18T01:59:59.685Z,78.47
2022-10-18T02:02:49.534Z,77.49
2022-10-18T02:05:56.015Z,78.11
2022-10-18T02:08:37.425Z,76.89
2022-10-18T02:11:12.473Z,77.78
2022-10-18T02:13:57.931Z,77.16
2022-10-18T02:16:50.487Z,79.12
2022-10-18T02:19:28.148Z,80.01
2022-10-18T02:21:57.314Z,79.76
2022-10-18T02:24:32.940Z,79.81
2022-10-18T02:27:00.193Z,79.05
2022-10-18T02:29:27.398Z,79.14
2022-10-18T02:32:32.274Z,78.11
2022-10-18T02:35:19.457Z,79.28
2022-10-18T02:37:49.877Z,80.77
2022-10-18T02:40:17.871Z,79.31
2022-10-18T02:42:49.782Z,79.88
2022-10-18T02:45:17.973Z,78.72
2022-10-18T02:47:45.409Z,79.28
2022-10-18T02:50:12.630Z,78.91
2022-10-18T02:52:39.853Z,78.71
2022-10-18T02:55:09.507Z,78.41
2022-10-18T02:57:39.369Z,77.86
2022-10-18T03:00:07.776Z,77.76
2022-10-18T03:02:34.904Z,78.15
2022-10-18T03:05:01.990Z,78.86
2022-10-18T03:07:31.707Z,77.03
2022-10-18T03:10:04.440Z,77.50
2022-10-18T03:12:31.529Z,78.06
2022-10-18T03:14:58.653Z,77.25
2022-10-18T03:17:25.826Z,77.20
2022-10-18T03:19:52.863Z,77.08
2022-10-18T03:22:22.373Z,77.18
2022-10-18T03:24:49.543Z,77.39
2022-10-18T03:27:18.927Z,77.94
2022-10-18T03:29:46.000Z,77.03
2022-10-18T03:32:13.089Z,77.43
2022-10-18T03:34:40.374Z,77.33
2022-10-18T03:37:07.435Z,77.60
2022-10-18T03:39:34.517Z,77.93
2022-10-18T03:42:01.550Z,77.25
2022-10-18T03:44:30.795Z,78.25
2022-10-18T03:47:00.084Z,77.10
2022-10-18T03:49:27.201Z,76.60
2022-10-18T03:51:54.365Z,76.17
2022-10-18T03:54:21.468Z,76.31
2022-10-18T03:56:48.785Z,75.47
2022-10-18T03:59:17.176Z,75.31
2022-10-18T04:01:46.919Z,75.14
2022-10-18T04:04:16.506Z,75.68
2022-10-18T04:06:43.770Z,76.23
2022-10-18T04:09:11.055Z,77.53
2022-10-18T04:11:40.725Z,78.10
2022-10-18T04:14:08.011Z,79.28
2022-10-18T04:19:07.123Z,78.65
2022-10-18T04:21:34.260Z,78.79
2022-10-18T04:24:01.382Z,78.70
2022-10-18T04:26:28.497Z,79.08
2022-10-18T04:28:55.677Z,78.43
2022-10-18T04:31:23.765Z,77.79
2022-10-18T04:33:50.826Z,76.07
2022-10-18T04:36:17.898Z,77.33
2022-10-18T04:38:45.038Z,78.43
2022-10-18T04:41:12.153Z,78.29
2022-10-18T04:43:41.295Z,79.72
2022-10-18T04:46:08.623Z,78.96
2022-10-18T04:48:35.713Z,78.08
2022-10-18T04:51:02.951Z,79.04
2022-10-18T04:53:30.072Z,79.69
2022-10-18T04:55:57.078Z,79.10
2022-10-18T04:58:24.222Z,79.57
2022-10-18T05:00:51.304Z,79.83
2022-10-18T05:03:21.181Z,80.43
2022-10-18T05:06:03.798Z,80.35
2022-10-18T05:08:34.105Z,79.99
2022-10-18T05:11:04.918Z,80.27
2022-10-18T05:13:32.208Z,80.60
2022-10-18T05:16:00.309Z,80.27
2022-10-18T05:18:27.481Z,80.35
2022-10-18T05:20:54.577Z,79.98
2022-10-18T05:23:21.918Z,79.51
2022-10-18T05:25:49.714Z,80.00
2022-10-18T05:28:38.140Z,79.67
2022-10-18T05:31:06.987Z,79.14
2022-10-18T05:33:34.301Z,79.27
2022-10-18T05:36:01.467Z,79.86
2022-10-18T05:38:31.149Z,79.50
2022-10-18T05:40:59.709Z,80.09
2022-10-18T05:43:30.083Z,80.31
2022-10-18T05:45:57.408Z,80.56
2022-10-18T05:48:24.969Z,80.98
2022-10-18T05:50:52.050Z,80.58
2022-10-18T05:53:35.698Z,79.34
2022-10-18T05:56:04.809Z,79.20
2022-10-18T05:58:32.042Z,80.11
2022-10-18T06:01:01.298Z,79.43
2022-10-18T06:03:30.867Z,78.66
2022-10-18T06:06:25.824Z,78.98
2022-10-18T06:08:52.927Z,77.87
2022-10-18T06:11:21.327Z,78.50
2022-10-18T06:13:51.148Z,78.41
2022-10-18T06:16:21.307Z,79.21
2022-10-18T06:18:49.971Z,78.77
2022-10-18T06:21:20.482Z,78.07
2022-10-18T06:23:59.463Z,78.92
2022-10-18T06:26:28.402Z,79.38
2022-10-18T06:28:55.734Z,79.36
2022-10-18T06:31:25.075Z,79.34
2022-10-18T06:33:52.112Z,78.60
2022-10-18T06:36:24.207Z,79.39
2022-10-18T06:38:51.556Z,79.28
2022-10-18T06:41:19.642Z,79.78
2022-10-18T06:43:57.348Z,81.38
2022-10-18T06:46:25.877Z,82.54
2022-10-18T06:48:53.123Z,81.22
2022-10-18T06:51:20.634Z,80.82
2022-10-18T06:54:05.947Z,80.72
2022-10-18T06:56:39.658Z,79.33
2022-10-18T06:59:09.917Z,79.63
2022-10-18T07:01:37.291Z,79.55
2022-10-18T07:04:04.729Z,78.40
2022-10-18T07:06:31.783Z,78.37
2022-10-18T07:08:58.894Z,77.84
2022-10-18T07:11:26.998Z,77.46
2022-10-18T07:14:00.936Z,76.85
2022-10-18T07:16:27.968Z,76.45
2022-10-18T07:18:57.428Z,77.67
2022-10-18T07:21:30.509Z,77.03
2022-10-18T07:23:57.768Z,76.34
2022-10-18T07:26:31.826Z,77.98
2022-10-18T07:29:08.605Z,78.01
2022-10-18T07:31:36.502Z,77.96
2022-10-18T07:34:08.660Z,77.68
2022-10-18T07:36:38.542Z,77.94
2022-10-18T07:39:06.176Z,77.34
2022-10-18T07:41:34.290Z,76.63
2022-10-18T07:44:02.191Z,76.74
2022-10-18T07:46:29.280Z,77.06
2022-10-18T07:48:56.599Z,76.65
2022-10-18T07:51:23.866Z,76.92
2022-10-18T07:53:53.436Z,75.89
2022-10-18T07:56:22.080Z,75.94
2022-10-18T07:58:52.536Z,75.78
2022-10-18T08:01:25.295Z,75.24
2022-10-18T08:03:53.243Z,75.16
2022-10-18T08:06:22.801Z,75.08
2022-10-18T08:08:50.068Z,75.22
2022-10-18T08:11:20.877Z,75.11
2022-10-18T08:13:48.693Z,74.81
2022-10-18T08:16:23.823Z,73.69
2022-10-18T08:18:51.783Z,74.73
2022-10-18T08:21:20.756Z,74.45
2022-10-18T08:23:48.552Z,74.92
2022-10-18T08:26:19.030Z,73.60
2022-10-18T08:28:53.963Z,73.06
2022-10-18T08:31:31.288Z,72.91
2022-10-18T08:33:58.570Z,73.30
2022-10-18T08:36:25.920Z,72.73
2022-10-18T08:38:53.147Z,73.51
2022-10-18T08:41:46.421Z,72.04
2022-10-18T08:44:33.093Z,71.53
2022-10-18T08:47:39.398Z,72.24
2022-10-18T08:50:21.919Z,72.81
2022-10-18T08:53:19.658Z,72.30
2022-10-18T08:55:54.814Z,73.75
2022-10-18T08:58:30.868Z,74.87
2022-10-18T09:01:22.650Z,74.39
2022-10-18T09:04:45.483Z,73.71
2022-10-18T09:07:51.602Z,73.93
2022-10-18T09:11:03.573Z,74.53
2022-10-18T09:14:23.280Z,74.82
2022-10-18T09:17:16.081Z,74.37
2022-10-18T09:20:25.458Z,75.18
2022-10-18T09:22:55.550Z,73.99
2022-10-18T09:25:28.352Z,74.28
2022-10-18T09:28:30.796Z,74.49
2022-10-18T09:31:17.851Z,75.33
2022-10-18T09:34:08.746Z,76.39
2022-10-18T09:36:38.878Z,77.59
2022-10-18T09:39:16.772Z,77.45
2022-10-18T09:42:01.629Z,77.37
2022-10-18T09:44:53.133Z,78.07
2022-10-18T09:47:41.556Z,80.00
2022-10-18T09:50:32.463Z,79.09
2022-10-18T09:53:20.454Z,78.78
2022-10-18T09:56:30.336Z,79.61
2022-10-18T09:58:57.891Z,80.52
2022-10-18T10:01:25.791Z,81.02
2022-10-18T10:03:59.409Z,80.75
2022-10-18T10:06:32.214Z,79.73
2022-10-18T10:09:14.994Z,80.38
2022-10-18T10:12:04.792Z,80.27
2022-10-18T10:14:44.270Z,81.02
2022-10-18T10:17:26.345Z,81.59
2022-10-18T10:20:03.950Z,83.15
2022-10-18T10:22:38.401Z,83.43
2022-10-18T10:25:06.664Z,84.11
2022-10-18T10:27:47.350Z,84.56
2022-10-18T10:30:27.378Z,84.19
2022-10-18T10:32:56.087Z,85.29
2022-10-18T10:35:53.479Z,84.95
2022-10-18T10:38:29.494Z,85.04
2022-10-18T10:40:57.927Z,85.28
2022-10-18T10:43:38.932Z,85.90
2022-10-18T10:46:19.528Z,86.75
2022-10-18T10:49:27.931Z,86.22
2022-10-18T10:52:09.074Z,86.87
2022-10-18T10:54:51.347Z,86.46
2022-10-18T10:57:26.831Z,86.59
2022-10-18T11:00:00.255Z,86.22
2022-10-18T11:02:33.934Z,86.59
2022-10-18T11:05:29.359Z,86.40
2022-10-18T11:08:02.480Z,85.87
2022-10-18T11:10:50.801Z,86.39
2022-10-18T11:13:50.014Z,85.69
2022-10-18T11:16:34.011Z,86.49
2022-10-18T11:19:12.281Z,85.40
2022-10-18T11:21:41.339Z,84.75
2022-10-18T11:24:16.225Z,84.71
2022-10-18T11:27:12.422Z,85.57
2022-10-18T11:30:35.117Z,85.67
2022-10-18T11:34:07.714Z,85.60
2022-10-18T11:36:56.163Z,86.00
2022-10-18T11:39:32.511Z,85.37
2022-10-18T11:42:18.079Z,85.08
2022-10-18T11:45:06.889Z,84.62
2022-10-18T11:47:58.607Z,84.82
2022-10-18T11:51:10.421Z,84.30
2022-10-18T11:53:59.066Z,85.86
2022-10-18T11:57:02.055Z,85.57
2022-10-18T12:00:08.592Z,85.37
2022-10-18T12:03:03.205Z,85.55
2022-10-18T12:05:32.054Z,85.58
2022-10-18T12:08:13.929Z,84.63
2022-10-18T12:11:03.830Z,84.43
2022-10-18T12:13:52.477Z,84.41
2022-10-18T12:16:45.553Z,85.39
2022-10-18T12:19:33.202Z,85.58
2022-10-18T12:22:34.740Z,85.36
2022-10-18T12:25:08.566Z,85.66
2022-10-18T12:27:50.242Z,85.43
2022-10-18T12:31:31.184Z,85.60
2022-10-18T12:34:21.191Z,86.22
2022-10-18T12:37:50.291Z,85.40
2022-10-18T12:40:33.487Z,85.12
2022-10-18T12:43:07.182Z,85.45
2022-10-18T12:45:46.579Z,85.01
2022-10-18T12:48:38.848Z,84.52
2022-10-18T12:51:26.092Z,84.72
2022-10-18T12:54:09.429Z,85.45
2022-10-18T12:56:42.238Z,85.37
2022-10-18T12:59:29.439Z,85.78
2022-10-18T13:01:58.964Z,85.70
2022-10-18T13:04:29.049Z,85.56
2022-10-18T13:07:03.159Z,86.29
2022-10-18T13:09:36.664Z,85.25
2022-10-18T13:12:09.809Z,86.00
2022-10-18T13:14:53.352Z,86.49
2022-10-18T13:17:47.372Z,85.86
2022-10-18T13:20:38.937Z,86.01
2022-10-18T13:23:54.798Z,85.90
2022-10-18T13:26:43.677Z,85.74
2022-10-18T13:29:44.421Z,86.11
2022-10-18T13:33:18.558Z,85.35
2022-10-18T13:35:47.017Z,85.48
2022-10-18T13:38:38.496Z,85.84
2022-10-18T13:41:34.491Z,85.08
2022-10-18T13:44:02.630Z,85.24
2022-10-18T13:46:36.563Z,85.47
2022-10-18T13:49:22.302Z,84.92
2022-10-18T13:51:55.302Z,84.95
2022-10-18T13:55:18.823Z,85.05
2022-10-18T13:58:30.089Z,85.83
2022-10-18T14:01:27.333Z,86.02
2022-10-18T14:04:51.290Z,86.81
2022-10-18T14:07:24.481Z,86.42
2022-10-18T14:09:55.664Z,85.80
2022-10-18T14:12:52.222Z,86.22
2022-10-18T14:15:34.204Z,85.97
2022-10-18T14:18:13.085Z,86.82
2022-10-18T14:21:12.803Z,86.53
2022-10-18T14:23:47.048Z,86.54
2022-10-18T14:26:21.641Z,85.64
2022-10-18T14:29:16.437Z,85.88
2022-10-18T14:31:54.494Z,85.61
2022-10-18T14:34:22.173Z,85.57
2022-10-18T14:36:49.919Z,85.86
2022-10-18T14:39:30.774Z,86.22
2022-10-18T14:41:58.912Z,85.88
2022-10-18T14:44:32.058Z,86.04
2022-10-18T14:47:13.943Z,85.67
2022-10-18T14:49:45.821Z,85.62
2022-10-18T14:52:26.620Z,86.25
2022-10-18T14:54:56.906Z,86.13
2022-10-18T14:57:32.756Z,86.00
2022-10-18T15:00:08.269Z,86.25
2022-10-18T15:02:39.436Z,86.27
2022-10-18T15:05:19.406Z,86.24
2022-10-18T15:07:48.232Z,85.74
2022-10-18T15:10:20.272Z,86.34
2022-10-18T15:13:08.698Z,85.68
2022-10-18T15:15:36.384Z,87.24
2022-10-18T15:18:05.434Z,86.90
2022-10-18T15:20:42.598Z,86.34
2022-10-18T15:23:39.195Z,85.96
2022-10-18T15:26:11.622Z,86.48
2022-10-18T15:28:51.261Z,86.96
2022-10-18T15:31:27.313Z,85.86
2022-10-18T15:34:15.578Z,86.23
2022-10-18T15:39:31.269Z,85.89
2022-10-18T15:42:01.143Z,86.68
2022-10-18T15:44:51.328Z,87.04
2022-10-18T15:47:21.140Z,87.06
2022-10-18T15:49:55.662Z,87.50
2022-10-18T15:52:42.801Z,86.92
2022-10-18T15:55:31.565Z,86.86
2022-10-18T15:58:26.836Z,87.38
2022-10-18T16:01:00.528Z,86.96
2022-10-18T16:03:28.684Z,87.05
2022-10-18T16:06:08.935Z,87.43
2022-10-18T16:08:45.766Z,86.91
2022-10-18T16:11:24.671Z,87.46
2022-10-18T16:13:56.481Z,87.33
2022-10-18T16:16:29.344Z,87.85
2022-10-18T16:18:59.513Z,87.85
2022-10-18T16:21:36.632Z,87.50
2022-10-18T16:24:05.006Z,87.69
2022-10-18T16:26:32.956Z,87.03
2022-10-18T16:29:01.284Z,87.33
2022-10-18T16:31:32.344Z,87.23
2022-10-18T16:34:00.413Z,87.82
2022-10-18T16:36:30.888Z,87.56
2022-10-18T16:39:01.239Z,87.95
2022-10-18T16:41:29.003Z,87.78
2022-10-18T16:43:56.065Z,88.27
2022-10-18T16:46:29.123Z,88.37
2022-10-18T16:48:59.417Z,87.94
2022-10-18T16:51:27.497Z,88.43
2022-10-18T16:53:54.978Z,87.63
2022-10-18T16:56:29.203Z,87.64
2022-10-18T16:58:57.526Z,88.32
2022-10-18T17:01:25.404Z,88.18
2022-10-18T17:03:53.493Z,89.02
2022-10-18T17:06:27.941Z,89.16
2022-10-18T17:08:56.321Z,87.96
2022-10-18T17:11:26.808Z,89.05
2022-10-18T17:13:54.117Z,88.79
2022-10-18T17:16:37.143Z,88.39
2022-10-18T17:19:08.426Z,88.82
2022-10-18T17:21:35.594Z,88.73
2022-10-18T17:24:04.448Z,88.07
2022-10-18T17:26:34.285Z,87.82
2022-10-18T17:29:08.490Z,87.92
2022-10-18T17:31:35.931Z,87.70
2022-10-18T17:34:03.996Z,87.87
2022-10-18T17:36:35.161Z,87.96
2022-10-18T17:39:02.543Z,88.63
2022-10-18T17:41:29.700Z,88.19
2022-10-18T17:43:56.936Z,88.32
2022-10-18T17:46:26.245Z,88.09
2022-10-18T17:48:54.022Z,87.98
2022-10-18T17:51:22.075Z,88.49
2022-10-18T17:53:49.375Z,88.87
2022-10-18T17:56:17.413Z,88.73
2022-10-18T17:58:50.174Z,88.66
2022-10-18T18:01:23.915Z,88.96
2022-10-18T18:03:56.819Z,89.46
2022-10-18T18:06:31.105Z,89.34
2022-10-18T18:09:01.252Z,89.12
2022-10-18T18:11:29.100Z,89.45
2022-10-18T18:14:01.315Z,89.87
2022-10-18T18:16:30.129Z,90.13
2022-10-18T18:18:58.644Z,90.20
2022-10-18T18:21:27.151Z,90.41
2022-10-18T18:23:54.938Z,90.53
2022-10-18T18:26:22.649Z,89.99
2022-10-18T18:28:50.182Z,90.58
2022-10-18T18:31:23.581Z,90.13
2022-10-18T18:33:52.670Z,90.03
2022-10-18T18:36:20.611Z,89.76
2022-10-18T18:38:48.600Z,89.15
2022-10-18T18:41:19.948Z,88.61
2022-10-18T18:43:53.861Z,88.67
2022-10-18T18:46:24.611Z,88.08
2022-10-18T18:48:56.375Z,88.22
2022-10-18T18:51:26.363Z,88.57
2022-10-18T18:53:53.857Z,87.84
2022-10-18T18:56:26.861Z,87.04
2022-10-18T18:58:54.804Z,86.94
2022-10-18T19:01:27.747Z,86.05
2022-10-18T19:03:59.368Z,86.07
2022-10-18T19:06:34.592Z,86.04
2022-10-18T19:09:04.329Z,85.28
2022-10-18T19:11:37.913Z,85.54
2022-10-18T19:14:09.263Z,86.49
2022-10-18T19:16:46.564Z,87.00
2022-10-18T19:19:17.492Z,87.89
2022-10-18T19:21:51.908Z,87.61
2022-10-18T19:24:20.612Z,87.82
2022-10-18T19:27:02.475Z,88.05
2022-10-18T19:29:33.805Z,87.90
2022-10-18T19:32:05.533Z,87.45
2022-10-18T19:34:34.416Z,86.89
2022-10-18T19:37:09.464Z,87.44
2022-10-18T19:39:36.787Z,87.41
2022-10-18T19:42:15.760Z,86.72
2022-10-18T19:44:48.457Z,86.73
2022-10-18T19:47:18.724Z,86.04
2022-10-18T19:49:46.292Z,86.22
2022-10-18T19:52:13.502Z,86.59
2022-10-18T19:54:40.863Z,87.07
2022-10-18T19:57:08.806Z,86.00
2022-10-18T19:59:36.282Z,85.78
2022-10-18T20:02:06.006Z,85.50
2022-10-18T20:04:35.044Z,86.10
2022-10-18T20:07:02.999Z,85.97
2022-10-18T20:09:30.581Z,85.48
2022-10-18T20:11:57.774Z,85.95
2022-10-18T20:14:25.081Z,85.80
2022-10-18T20:16:52.262Z,85.10
2022-10-18T20:19:19.434Z,85.50
2022-10-18T20:21:46.580Z,85.54
2022-10-18T20:24:13.880Z,85.88
2022-10-18T20:26:41.242Z,85.92
2022-10-18T20:29:08.524Z,85.86
2022-10-18T20:31:38.613Z,86.06
2022-10-18T20:34:10.649Z,85.94
2022-10-18T20:36:38.834Z,85.90
2022-10-18T20:39:06.583Z,85.98
2022-10-18T20:41:41.179Z,86.06
2022-10-18T20:44:13.589Z,86.46
2022-10-18T20:46:41.163Z,86.74
2022-10-18T20:49:12.392Z,87.20
2022-10-18T20:51:39.880Z,86.84
2022-10-18T20:54:08.498Z,86.59
2022-10-18T20:56:37.825Z,86.29
2022-10-18T20:59:06.401Z,86.75
2022-10-18T21:01:35.582Z,86.97
2022-10-18T21:04:07.217Z,85.99
2022-10-18T21:06:41.643Z,86.95
2022-10-18T21:09:18.739Z,86.39
2022-10-18T21:11:50.203Z,86.09
2022-10-18T21:14:20.729Z,86.25
2022-10-18T21:16:49.681Z,86.17
2022-10-18T21:19:21.997Z,86.15
2022-10-18T21:21:52.605Z,86.87
2022-10-18T21:24:24.711Z,87.02
2022-10-18T21:26:52.418Z,87.66
2022-10-18T21:29:22.234Z,88.80
2022-10-18T21:31:54.297Z,87.32
2022-10-18T21:34:21.667Z,88.11
2022-10-18T21:36:48.993Z,88.59
2022-10-18T21:39:22.143Z,87.81
2022-10-18T21:41:50.802Z,88.01
2022-10-18T21:44:18.391Z,88.01
2022-10-18T21:46:46.833Z,87.48
2022-10-18T21:49:15.793Z,87.51
2022-10-18T21:51:43.409Z,86.97
2022-10-18T21:54:16.605Z,87.28
2022-10-18T21:56:44.216Z,87.89
2022-10-18T21:59:14.450Z,87.66
2022-10-18T22:01:43.641Z,87.03
2022-10-18T22:04:25.507Z,86.89
2022-10-18T22:06:52.697Z,86.67
2022-10-18T22:09:22.486Z,86.96
2022-10-18T22:11:53.680Z,87.54
2022-10-18T22:14:21.862Z,87.57
2022-10-18T22:16:49.320Z,86.78
2022-10-18T22:19:16.864Z,86.89
2022-10-18T22:21:44.126Z,87.11
2022-10-18T22:24:11.457Z,87.16
2022-10-18T22:26:41.759Z,86.63
2022-10-18T22:29:14.142Z,86.69
2022-10-18T22:31:48.594Z,86.79
2022-10-18T22:34:23.668Z,87.45
2022-10-18T22:36:51.385Z,85.95
2022-10-18T22:39:20.995Z,86.30
2022-10-18T22:41:52.363Z,86.53
2022-10-18T22:44:19.952Z,85.98
2022-10-18T22:46:47.687Z,85.97
2022-10-18T22:49:14.900Z,86.29
2022-10-18T22:51:42.247Z,85.97
2022-10-18T22:54:10.184Z,86.21
2022-10-18T22:56:37.441Z,86.82
2022-10-18T22:59:04.573Z,86.58
2022-10-18T23:01:31.695Z,86.66
2022-10-18T23:04:00.729Z,85.72
2022-10-18T23:06:36.301Z,85.66
2022-10-18T23:09:10.908Z,85.68
2022-10-18T23:11:38.528Z,86.00
2022-10-18T23:14:07.283Z,85.68
2022-10-18T23:16:35.087Z,85.47
2022-10-18T23:19:02.772Z,85.29
2022-10-18T23:21:29.858Z,84.42
2022-10-18T23:23:57.543Z,84.74
2022-10-18T23:26:27.327Z,84.27
2022-10-18T23:28:55.183Z,85.14
2022-10-18T23:31:30.059Z,84.74
2022-10-18T23:34:00.667Z,84.59
2022-10-18T23:36:29.016Z,84.78
2022-10-18T23:38:56.596Z,84.64
2022-10-18T23:41:23.828Z,84.97
2022-10-18T23:43:51.812Z,84.89
2022-10-18T23:46:19.785Z,84.48
2022-10-18T23:48:48.125Z,84.09
2022-10-18T23:51:16.660Z,84.33
2022-10-18T23:53:44.260Z,83.74
2022-10-18T23:56:14.866Z,84.33
2022-10-18T23:58:45.477Z,84.63
